DNMMDNEN

Guest
Details From DNMM - Lagos Murtala Muhammed
To DNEN - ENUGU
Flight Number -
Tags generated
Created
Modified
Stats Distance 262 nm / 485 km
Max Altitude 31,200 ft / 9,510 m
Waypoints 4
Social Downloads 1
Likes 0
Share VATSIM

Download

Looking for another format? Having issues loading an existing format? Contact us
Advertisement - Login to hide

Notes

Basic altitude profile: - Ascent Rate: 2500ft/min - Ascent Speed: 250kts - Cruise Altitude: 35000ft - Cruise Speed: 420kts - Descent Rate: 1500ft/min - Descent Speed: 250kts Options: - Use NATs: yes - Use PACOTS: yes - Use low airways: yes - Use high airways: yes

Route

DNMM OK A609 POTGO DNEN

ID Type Via Altitude Latitude Longitude Leg Dist Tot Dist Heading (true) Name
O DNMM APT - 0 ft / 0 m 6.57738˚ 3.32135˚ - 0 nm - Lagos Murtala Muhammed
OK NDB - 31,200 ft / 9,510 m 6.50049˚ 4.83257˚ 90 nm 90 nm 93° / 93° OKITIPUPA NDB
POTGO FIX A609 (AWY-LO) 8,200 ft / 2,499 m 6.11272˚ 7.02520˚ 132 nm 223 nm 100° / 100° -
O DNEN APT - 0 ft / 0 m 6.47405˚ 7.56161˚ 38 nm 261 nm 56° / 56° ENUGU

Altitude Profile

Advertisement - Login to hide

Weather


0- 5 10 15 20 25 30 35+ Temperature / ° C

Clouds and Precipitation
Forecast for 2017-12-16 12:00 UTC. Updated 2 hours ago

Ground ~20,000 ft ~40,000 ft Winds

DNMM

Details ICAO DNMM (LOS)
Name Lagos Murtala Muhammed
Region Nigeria
Timezone Africa/Lagos (UTC+1.0)
Stats Elevation 135 ft / 41 m (AMSL)
Location 6.577380° 3.321347°
Runways 2
Magnetic Variation 2.225° W

METAR

DNMM 161100Z 28004KT 8000 BKN014 32/24 Q1012 NOSIG

Decode

TAF

TAF DNMM 152130Z 1600/1706 VRB02KT 7000 FEW010 TEMPO 1605/1608 5000 HZ PROB30 1606/1607 3000 BR BECMG 1608/1610 30010KT

Decode

Departure Runways

ID Width Length Bearing (true) Bearing (mag) Surface Threshold Offset Overrun Length
18L 148 ft / 45 m 9,049 ft / 2,758 m 180.00° 182.22° Asphalt 300 ft / 91 m 0 ft / 0 m
18R 197 ft / 60 m 12,867 ft / 3,922 m 180.00° 182.22° Asphalt 600 ft / 183 m 0 ft / 0 m
36L 197 ft / 60 m 12,867 ft / 3,922 m 0.00° 2.22° Asphalt 600 ft / 183 m 0 ft / 0 m
36R 148 ft / 45 m 9,049 ft / 2,758 m 0.00° 2.22° Asphalt 300 ft / 91 m 0 ft / 0 m

DNEN

Details ICAO DNEN (ENU)
Name ENUGU
Region Nigeria
Timezone Africa/Lagos (UTC+1.0)
Stats Elevation 466 ft / 142 m (AMSL)
Location 6.474051° 7.561609°
Runways 1
Magnetic Variation 1.185° W

METAR

Not found

TAF

TAF DNEN 160350Z 1606/1712 09006KT 5000 HZ NSC TEMPO 1607/1610 3000

Decode

Destination Runways

ID Width Length Bearing (true) Bearing (mag) Surface Threshold Offset Overrun Length
08 148 ft / 45 m 7,873 ft / 2,400 m 80.07° 81.25° Asphalt 0 ft / 0 m 215 ft / 66 m
26 148 ft / 45 m 7,873 ft / 2,400 m 260.08° 261.26° Asphalt 0 ft / 0 m 215 ft / 66 m

Popular Alternatives